Time;durP1;ratioP1;P1;durP2;ratioP2;P2;SDS_P1;SDS_P2;PMS_P1;PMS_P2;Temp;Humidity;BMP_temperature;BMP_pressure;BME280_temperature;BME280_humidity;BME280_pressure;Samples;Min_cycle;Max_cycle;Signal;HPM_P1;HPM_P2
2021/08/10 00:01:39;;;;;;;15.57;6.03;;;;;;;;;;6279714;22;20069;-85
2021/08/10 00:04:06;;;;;;;13.65;5.85;;;;;;;;;;6254346;22;20024;-83
2021/08/10 00:06:33;;;;;;;14.35;6.68;;;;;;;;;;6279206;22;20268;-83
2021/08/10 00:08:59;;;;;;;17.63;6.60;;;;;;;;;;6280849;22;20362;-83
2021/08/10 00:11:26;;;;;;;14.45;5.82;;;;;;;;;;6251593;22;20386;-83
2021/08/10 00:13:53;;;;;;;13.55;6.57;;;;;;;;;;6250638;22;20035;-82
2021/08/10 00:16:19;;;;;;;11.63;6.57;;;;;;;;;;6277007;22;20395;-82
2021/08/10 00:18:46;;;;;;;13.57;7.10;;;;;;;;;;6249253;22;20182;-82
2021/08/10 00:21:13;;;;;;;13.30;6.72;;;;;;;;;;6252456;22;20020;-82
2021/08/10 00:23:47;;;;;;;13.57;6.57;;;;;;;;;;6276005;22;20066;-83
2021/08/10 00:26:13;;;;;;;17.23;7.10;;;;;;;;;;6251556;22;20047;-83
2021/08/10 00:28:41;;;;;;;16.08;7.30;;;;;;;;;;6276391;22;20023;-82
2021/08/10 00:31:07;;;;;;;12.38;6.60;;;;;;;;;;6250711;22;20035;-83
2021/08/10 00:33:34;;;;;;;11.82;6.32;;;;;;;;;;6253087;22;20039;-83
2021/08/10 00:36:03;;;;;;;15.95;7.03;;;;;;;;;;6218424;23;20043;-83
2021/08/10 00:38:30;;;;;;;15.77;6.85;;;;;;;;;;6217988;23;20024;-83
2021/08/10 00:40:57;;;;;;;14.82;6.97;;;;;;;;;;6243597;23;20024;-83
2021/08/10 00:43:28;;;;;;;12.40;7.55;;;;;;;;;;6217890;23;20024;-83
2021/08/10 00:45:54;;;;;;;17.88;6.97;;;;;;;;;;6220529;23;20089;-83
2021/08/10 00:48:21;;;;;;;11.02;6.47;;;;;;;;;;6224278;23;20055;-83
2021/08/10 00:50:48;;;;;;;14.55;7.38;;;;;;;;;;6238855;23;20309;-83
2021/08/10 00:53:14;;;;;;;13.15;7.68;;;;;;;;;;6237330;22;20024;-83
2021/08/10 00:55:41;;;;;;;12.18;7.68;;;;;;;;;;6222032;23;20079;-83
2021/08/10 00:58:07;;;;;;;14.40;8.07;;;;;;;;;;6220921;23;20090;-83
2021/08/10 01:00:34;;;;;;;18.40;7.65;;;;;;;;;;6246697;23;20082;-81
2021/08/10 01:03:00;;;;;;;12.10;7.28;;;;;;;;;;6220168;23;20353;-82
2021/08/10 01:05:28;;;;;;;15.75;8.35;;;;;;;;;;6220792;23;20373;-82
2021/08/10 01:07:57;;;;;;;17.08;7.68;;;;;;;;;;6247740;23;20374;-82
2021/08/10 01:10:27;;;;;;;12.98;7.65;;;;;;;;;;6245514;23;20333;-82
2021/08/10 01:12:59;;;;;;;13.25;6.93;;;;;;;;;;6247076;23;20099;-82
2021/08/10 01:15:29;;;;;;;21.73;7.47;;;;;;;;;;6221377;23;20288;-82
2021/08/10 01:17:59;;;;;;;18.15;8.15;;;;;;;;;;6219153;23;20074;-81
2021/08/10 01:20:25;;;;;;;13.50;7.85;;;;;;;;;;6244785;23;20028;-82
2021/08/10 01:22:53;;;;;;;16.45;8.65;;;;;;;;;;6243596;23;20090;-82
2021/08/10 01:25:28;;;;;;;18.90;8.10;;;;;;;;;;6244744;23;20085;-82
2021/08/10 01:28:14;;;;;;;11.30;7.80;;;;;;;;;;6219848;23;20217;-81
2021/08/10 01:30:56;;;;;;;24.38;9.15;;;;;;;;;;6253020;23;20024;-82
2021/08/10 01:33:23;;;;;;;13.43;7.47;;;;;;;;;;6271041;22;20034;-82
2021/08/10 01:35:51;;;;;;;17.25;9.13;;;;;;;;;;6280602;22;20385;-82
2021/08/10 01:38:17;;;;;;;18.35;8.30;;;;;;;;;;6252873;22;20098;-82
2021/08/10 01:40:45;;;;;;;13.50;8.38;;;;;;;;;;6252798;22;20441;-82
2021/08/10 01:43:12;;;;;;;13.80;8.98;;;;;;;;;;6252081;22;20031;-82
2021/08/10 01:45:39;;;;;;;17.77;8.65;;;;;;;;;;6255421;22;20024;-82
2021/08/10 01:48:07;;;;;;;16.63;8.05;;;;;;;;;;6251406;22;20027;-82
2021/08/10 01:50:34;;;;;;;17.88;8.18;;;;;;;;;;6252755;22;20034;-82
2021/08/10 01:53:00;;;;;;;19.55;8.50;;;;;;;;;;6249705;22;20023;-83
2021/08/10 01:55:27;;;;;;;16.10;7.85;;;;;;;;;;6252463;22;20023;-82
2021/08/10 01:57:55;;;;;;;16.65;8.30;;;;;;;;;;6278436;22;20032;-82
2021/08/10 02:00:22;;;;;;;15.55;7.60;;;;;;;;;;6258984;22;20008;-82
2021/08/10 02:02:49;;;;;;;17.08;7.72;;;;;;;;;;6296294;22;20024;-82
2021/08/10 02:05:17;;;;;;;14.00;7.95;;;;;;;;;;6293563;22;20035;-82
2021/08/10 02:07:43;;;;;;;14.10;6.80;;;;;;;;;;6295112;22;20008;-82
2021/08/10 02:10:10;;;;;;;11.13;7.10;;;;;;;;;;6293937;22;20028;-82
2021/08/10 02:12:37;;;;;;;14.40;7.85;;;;;;;;;;6241089;22;20028;-81
2021/08/10 02:15:04;;;;;;;13.35;6.85;;;;;;;;;;6265067;22;20277;-81
2021/08/10 02:17:32;;;;;;;13.60;7.10;;;;;;;;;;6287791;22;20034;-81
2021/08/10 02:19:58;;;;;;;14.20;7.90;;;;;;;;;;6279902;22;20023;-82
2021/08/10 02:22:28;;;;;;;20.95;8.68;;;;;;;;;;6277016;22;20031;-82
2021/08/10 02:25:06;;;;;;;14.40;7.43;;;;;;;;;;6250886;22;20071;-81
2021/08/10 02:27:33;;;;;;;21.35;7.93;;;;;;;;;;6250544;22;20030;-81
2021/08/10 02:30:01;;;;;;;17.65;7.97;;;;;;;;;;6251237;22;20043;-81
2021/08/10 02:32:28;;;;;;;16.25;7.63;;;;;;;;;;6256540;22;20051;-80
2021/08/10 02:34:57;;;;;;;21.15;8.52;;;;;;;;;;6264038;22;20050;-81
2021/08/10 02:37:24;;;;;;;14.02;7.97;;;;;;;;;;6291214;22;20035;-81
2021/08/10 02:39:52;;;;;;;17.60;7.25;;;;;;;;;;6291747;22;20227;-80
2021/08/10 02:42:22;;;;;;;16.48;7.90;;;;;;;;;;6256770;22;20032;-81
2021/08/10 02:44:49;;;;;;;17.92;8.23;;;;;;;;;;6253043;22;20019;-81
2021/08/10 02:47:16;;;;;;;20.92;9.18;;;;;;;;;;6279286;22;20075;-81
2021/08/10 02:49:42;;;;;;;19.42;8.80;;;;;;;;;;6279239;22;20027;-82
2021/08/10 02:52:09;;;;;;;20.98;9.25;;;;;;;;;;6251472;22;20028;-81
2021/08/10 02:54:36;;;;;;;18.27;7.63;;;;;;;;;;6251984;22;20032;-81
2021/08/10 02:57:06;;;;;;;20.25;8.38;;;;;;;;;;6278497;22;20024;-81
2021/08/10 02:59:36;;;;;;;16.80;7.90;;;;;;;;;;6251744;22;20079;-81
2021/08/10 03:02:14;;;;;;;19.40;8.57;;;;;;;;;;6251453;22;20024;-81
2021/08/10 03:04:58;;;;;;;18.50;8.93;;;;;;;;;;6252426;22;20047;-81
2021/08/10 03:07:26;;;;;;;20.15;8.85;;;;;;;;;;6276903;22;20305;-81
2021/08/10 03:09:54;;;;;;;19.45;9.02;;;;;;;;;;6252580;22;20027;-81
2021/08/10 03:12:22;;;;;;;18.67;8.10;;;;;;;;;;6278073;22;20081;-83
2021/08/10 03:14:49;;;;;;;21.15;9.70;;;;;;;;;;6279919;22;20023;-83
2021/08/10 03:17:16;;;;;;;17.88;10.32;;;;;;;;;;6255527;22;20347;-83
2021/08/10 03:19:43;;;;;;;19.77;9.68;;;;;;;;;;6281649;22;20035;-83
2021/08/10 03:22:10;;;;;;;19.58;9.00;;;;;;;;;;6260130;22;20321;-83
2021/08/10 03:24:37;;;;;;;23.70;10.45;;;;;;;;;;6294976;22;20099;-83
2021/08/10 03:27:05;;;;;;;22.45;9.60;;;;;;;;;;6268118;22;20024;-84
2021/08/10 03:29:33;;;;;;;20.45;9.05;;;;;;;;;;6290984;22;20033;-83
2021/08/10 03:32:01;;;;;;;16.02;8.93;;;;;;;;;;6264339;22;20027;-83
2021/08/10 03:34:27;;;;;;;19.88;8.68;;;;;;;;;;6287020;22;20456;-84
2021/08/10 03:36:54;;;;;;;26.95;11.18;;;;;;;;;;6282947;22;20078;-84
2021/08/10 03:39:21;;;;;;;24.52;11.20;;;;;;;;;;6253264;22;20050;-83
2021/08/10 03:41:47;;;;;;;21.35;10.35;;;;;;;;;;6280668;22;20317;-84
2021/08/10 03:44:15;;;;;;;20.92;9.98;;;;;;;;;;6280164;22;20124;-83
2021/08/10 03:46:42;;;;;;;21.38;10.35;;;;;;;;;;6252062;22;20028;-83
2021/08/10 03:49:10;;;;;;;23.08;10.57;;;;;;;;;;6253360;22;20191;-83
2021/08/10 03:51:36;;;;;;;18.77;9.77;;;;;;;;;;6282087;22;20260;-83
2021/08/10 03:54:04;;;;;;;19.33;9.73;;;;;;;;;;6251366;22;20110;-84
2021/08/10 03:56:31;;;;;;;21.65;9.95;;;;;;;;;;6255374;22;20047;-83
2021/08/10 03:58:58;;;;;;;22.10;11.05;;;;;;;;;;6258068;22;20204;-83
2021/08/10 04:01:25;;;;;;;21.55;9.85;;;;;;;;;;6281501;22;20372;-83
2021/08/10 04:03:55;;;;;;;17.88;9.82;;;;;;;;;;6262046;22;20019;-84
2021/08/10 04:06:28;;;;;;;32.13;10.93;;;;;;;;;;6299679;22;20016;-82
2021/08/10 04:08:55;;;;;;;17.50;10.05;;;;;;;;;;6289665;22;20027;-83
2021/08/10 04:11:23;;;;;;;17.20;9.30;;;;;;;;;;6251751;22;20038;-83
2021/08/10 04:13:51;;;;;;;20.67;9.95;;;;;;;;;;6278928;22;20345;-83
2021/08/10 04:16:18;;;;;;;25.40;11.07;;;;;;;;;;6280656;22;20028;-83
2021/08/10 04:18:45;;;;;;;25.90;11.75;;;;;;;;;;6253149;22;20053;-84
2021/08/10 04:21:12;;;;;;;27.75;12.15;;;;;;;;;;6254496;22;20401;-83
2021/08/10 04:23:38;;;;;;;21.70;11.55;;;;;;;;;;6252507;22;20027;-82
2021/08/10 04:26:05;;;;;;;23.60;11.90;;;;;;;;;;6281589;22;20409;-84
2021/08/10 04:28:31;;;;;;;26.98;12.15;;;;;;;;;;6254242;22;20054;-83
2021/08/10 04:30:58;;;;;;;25.45;13.00;;;;;;;;;;6253265;22;20050;-83
2021/08/10 04:33:24;;;;;;;20.23;11.27;;;;;;;;;;6281395;22;20023;-83
2021/08/10 04:35:51;;;;;;;26.75;11.65;;;;;;;;;;6280712;22;20023;-84
2021/08/10 04:38:20;;;;;;;25.48;11.68;;;;;;;;;;6279706;22;20027;-84
2021/08/10 04:40:47;;;;;;;30.40;12.45;;;;;;;;;;6252551;22;20390;-84
2021/08/10 04:43:13;;;;;;;18.58;10.75;;;;;;;;;;6249509;22;20066;-84
2021/08/10 04:45:40;;;;;;;22.45;11.40;;;;;;;;;;6252746;22;20428;-83
2021/08/10 04:48:08;;;;;;;33.60;11.98;;;;;;;;;;6249320;22;20032;-82
2021/08/10 04:50:34;;;;;;;22.70;11.02;;;;;;;;;;6276233;22;20337;-83
2021/08/10 04:53:01;;;;;;;25.23;10.38;;;;;;;;;;6275319;22;20051;-83
2021/08/10 04:55:27;;;;;;;21.25;9.98;;;;;;;;;;6273465;22;20028;-82
2021/08/10 04:57:54;;;;;;;22.45;9.98;;;;;;;;;;6222510;22;20024;-83
2021/08/10 05:00:24;;;;;;;21.85;10.73;;;;;;;;;;6247345;22;20024;-83
2021/08/10 05:02:50;;;;;;;19.83;10.63;;;;;;;;;;6276397;22;20024;-83
2021/08/10 05:05:18;;;;;;;19.77;9.57;;;;;;;;;;6265907;22;20036;-82
2021/08/10 05:07:44;;;;;;;22.65;9.77;;;;;;;;;;6263509;22;20031;-81
2021/08/10 05:10:11;;;;;;;19.10;10.95;;;;;;;;;;6250344;22;20027;-83
2021/08/10 05:12:37;;;;;;;20.17;10.57;;;;;;;;;;6249909;22;20050;-83
2021/08/10 05:15:05;;;;;;;19.95;10.90;;;;;;;;;;6260175;22;20139;-81
2021/08/10 05:17:32;;;;;;;20.92;10.95;;;;;;;;;;6289721;22;20050;-86
2021/08/10 05:19:58;;;;;;;23.00;10.95;;;;;;;;;;6247282;22;20020;-83
2021/08/10 05:22:25;;;;;;;19.92;9.52;;;;;;;;;;6245737;22;20171;-83
2021/08/10 05:24:52;;;;;;;17.60;11.00;;;;;;;;;;6245979;22;20035;-83
2021/08/10 05:27:18;;;;;;;21.55;10.32;;;;;;;;;;6273414;22;20024;-83
2021/08/10 05:29:45;;;;;;;21.85;10.95;;;;;;;;;;6245076;22;20027;-82
2021/08/10 05:32:12;;;;;;;17.90;10.32;;;;;;;;;;6274693;22;20171;-82
2021/08/10 05:34:38;;;;;;;19.40;10.43;;;;;;;;;;6278793;22;20286;-82
2021/08/10 05:37:05;;;;;;;23.33;11.27;;;;;;;;;;6253251;22;20034;-82
2021/08/10 05:39:32;;;;;;;16.95;9.63;;;;;;;;;;6243879;22;20033;-83
2021/08/10 05:41:59;;;;;;;23.20;10.88;;;;;;;;;;6243901;22;20049;-82
2021/08/10 05:44:25;;;;;;;20.35;10.23;;;;;;;;;;6245762;22;20031;-82
2021/08/10 05:46:53;;;;;;;22.10;11.88;;;;;;;;;;6245973;22;20081;-83
2021/08/10 05:49:20;;;;;;;30.20;11.18;;;;;;;;;;6247541;22;20082;-83
2021/08/10 05:51:46;;;;;;;22.45;11.07;;;;;;;;;;6245457;22;20027;-83
2021/08/10 05:54:13;;;;;;;22.02;11.10;;;;;;;;;;6273131;22;20024;-82
2021/08/10 05:56:40;;;;;;;18.23;10.65;;;;;;;;;;6273652;22;20032;-83
2021/08/10 05:59:08;;;;;;;16.85;10.80;;;;;;;;;;6274171;22;20027;-83
2021/08/10 06:01:36;;;;;;;18.83;9.82;;;;;;;;;;6244938;22;20290;-82
2021/08/10 06:04:06;;;;;;;21.02;11.23;;;;;;;;;;6251326;22;20039;-83
2021/08/10 06:06:34;;;;;;;24.23;11.75;;;;;;;;;;6249913;22;20020;-83
2021/08/10 06:09:04;;;;;;;20.50;10.52;;;;;;;;;;6272153;22;20020;-82
2021/08/10 06:11:31;;;;;;;19.67;10.18;;;;;;;;;;6245618;22;20197;-82
2021/08/10 06:13:57;;;;;;;24.10;12.07;;;;;;;;;;6272747;22;20020;-83
2021/08/10 06:16:28;;;;;;;14.13;8.80;;;;;;;;;;6272795;22;20309;-83
2021/08/10 06:18:57;;;;;;;13.60;8.00;;;;;;;;;;6244688;22;20024;-83
2021/08/10 06:21:23;;;;;;;12.38;7.95;;;;;;;;;;6246797;22;20023;-81
2021/08/10 06:24:06;;;;;;;10.63;7.25;;;;;;;;;;6245695;22;20031;-82
2021/08/10 06:26:32;;;;;;;12.05;6.93;;;;;;;;;;6245835;22;20024;-82
2021/08/10 06:28:59;;;;;;;16.63;6.65;;;;;;;;;;6245547;22;20034;-82
2021/08/10 06:31:32;;;;;;;11.88;6.95;;;;;;;;;;6244960;22;20024;-82
2021/08/10 06:33:59;;;;;;;11.57;6.43;;;;;;;;;;6243830;22;20078;-82
2021/08/10 06:36:26;;;;;;;13.57;6.90;;;;;;;;;;6292917;22;20035;-81
2021/08/10 06:38:53;;;;;;;10.55;6.20;;;;;;;;;;6243794;22;20034;-81
2021/08/10 06:41:19;;;;;;;16.38;7.40;;;;;;;;;;6244256;22;20081;-81
2021/08/10 06:43:46;;;;;;;15.50;7.38;;;;;;;;;;6271290;22;20030;-80
2021/08/10 06:46:12;;;;;;;15.32;7.65;;;;;;;;;;6271930;22;20035;-81
2021/08/10 06:48:39;;;;;;;13.48;6.95;;;;;;;;;;6242793;22;20310;-82
2021/08/10 06:51:05;;;;;;;13.55;7.32;;;;;;;;;;6241517;22;20027;-82
2021/08/10 06:53:32;;;;;;;12.73;7.22;;;;;;;;;;6267852;22;20030;-82
2021/08/10 06:55:59;;;;;;;20.33;7.00;;;;;;;;;;6270586;22;20309;-82
2021/08/10 06:58:25;;;;;;;14.52;7.57;;;;;;;;;;6241056;22;20347;-81
2021/08/10 07:00:52;;;;;;;13.48;7.70;;;;;;;;;;6270187;22;20073;-81
2021/08/10 07:03:19;;;;;;;12.43;6.90;;;;;;;;;;6274769;22;20210;-80
2021/08/10 07:05:46;;;;;;;12.32;6.85;;;;;;;;;;6274892;22;20062;-81
2021/08/10 07:08:12;;;;;;;11.77;6.63;;;;;;;;;;6295571;22;20036;-81
2021/08/10 07:10:39;;;;;;;11.15;6.32;;;;;;;;;;6284546;22;20215;-82
2021/08/10 07:13:05;;;;;;;17.95;7.18;;;;;;;;;;6282792;22;20051;-82
2021/08/10 07:15:32;;;;;;;13.48;5.93;;;;;;;;;;6269036;22;20038;-82
2021/08/10 07:18:01;;;;;;;13.77;5.80;;;;;;;;;;6304845;22;20058;-81
2021/08/10 07:20:29;;;;;;;10.13;6.30;;;;;;;;;;6290357;22;20031;-81
2021/08/10 07:22:55;;;;;;;11.35;5.88;;;;;;;;;;6287382;22;20308;-82
2021/08/10 07:25:22;;;;;;;14.30;6.38;;;;;;;;;;6295813;22;20027;-82
2021/08/10 07:27:48;;;;;;;9.45;5.50;;;;;;;;;;6300025;22;20028;-82
2021/08/10 07:30:15;;;;;;;11.23;5.05;;;;;;;;;;6242447;22;20471;-82
2021/08/10 07:32:42;;;;;;;12.90;5.90;;;;;;;;;;6245349;22;20028;-81
2021/08/10 07:35:09;;;;;;;17.08;5.38;;;;;;;;;;6296177;22;20027;-81
2021/08/10 07:37:42;;;;;;;8.20;4.93;;;;;;;;;;6245023;22;20024;-81
2021/08/10 07:40:09;;;;;;;12.70;5.63;;;;;;;;;;6251711;22;20028;-81
2021/08/10 07:42:36;;;;;;;11.23;4.80;;;;;;;;;;6251792;22;20099;-81
2021/08/10 07:45:04;;;;;;;12.30;5.78;;;;;;;;;;6275320;22;20027;-81
2021/08/10 07:47:30;;;;;;;11.75;5.07;;;;;;;;;;6278388;22;20031;-82
2021/08/10 07:49:57;;;;;;;12.23;5.60;;;;;;;;;;6296175;22;20117;-82
2021/08/10 07:52:23;;;;;;;9.95;5.95;;;;;;;;;;6244688;22;20024;-81
2021/08/10 07:54:50;;;;;;;10.57;5.28;;;;;;;;;;6243402;22;20205;-82
2021/08/10 07:57:17;;;;;;;9.80;4.68;;;;;;;;;;6257250;22;20024;-82
2021/08/10 07:59:46;;;;;;;12.13;5.70;;;;;;;;;;6268502;22;20055;-82
2021/08/10 08:02:13;;;;;;;9.82;6.03;;;;;;;;;;6242682;22;20023;-82
2021/08/10 08:04:39;;;;;;;9.55;5.93;;;;;;;;;;6244149;22;20360;-81
2021/08/10 08:07:06;;;;;;;9.68;4.50;;;;;;;;;;6240507;22;20031;-81
2021/08/10 08:09:33;;;;;;;10.98;4.43;;;;;;;;;;6263191;22;20028;-81
2021/08/10 08:11:59;;;;;;;9.05;4.45;;;;;;;;;;6262032;22;20039;-83
2021/08/10 08:14:26;;;;;;;10.75;4.68;;;;;;;;;;6274095;22;20027;-83
2021/08/10 08:16:53;;;;;;;10.43;4.70;;;;;;;;;;6272554;22;20504;-82
2021/08/10 08:19:20;;;;;;;7.53;3.83;;;;;;;;;;6254597;22;20070;-82
2021/08/10 08:21:46;;;;;;;12.05;4.35;;;;;;;;;;6264419;22;20070;-81
2021/08/10 08:24:13;;;;;;;8.02;4.13;;;;;;;;;;6270561;22;20209;-82
2021/08/10 08:26:40;;;;;;;6.82;3.72;;;;;;;;;;6247067;22;20020;-82
2021/08/10 08:29:07;;;;;;;6.57;3.88;;;;;;;;;;6272472;22;20034;-82
2021/08/10 08:31:44;;;;;;;8.07;3.30;;;;;;;;;;6250076;22;20436;-83
2021/08/10 08:34:11;;;;;;;7.22;3.50;;;;;;;;;;6248918;22;20027;-83
2021/08/10 08:36:38;;;;;;;8.05;3.65;;;;;;;;;;6276942;22;20082;-83
2021/08/10 08:39:18;;;;;;;6.13;3.10;;;;;;;;;;6251804;22;20024;-82
2021/08/10 08:41:46;;;;;;;10.00;3.78;;;;;;;;;;6276283;22;20035;-83
2021/08/10 08:44:14;;;;;;;9.18;3.92;;;;;;;;;;6275600;22;20039;-83
2021/08/10 08:46:45;;;;;;;7.00;3.78;;;;;;;;;;6254504;22;20031;-83
2021/08/10 08:49:13;;;;;;;7.53;3.67;;;;;;;;;;6249715;22;20027;-82
2021/08/10 08:51:40;;;;;;;7.35;3.90;;;;;;;;;;6258122;22;20113;-83
2021/08/10 08:54:07;;;;;;;11.05;4.00;;;;;;;;;;6259847;22;20093;-84
2021/08/10 08:56:33;;;;;;;9.35;3.50;;;;;;;;;;6259987;22;20023;-83
2021/08/10 08:59:04;;;;;;;8.20;3.90;;;;;;;;;;6285387;22;20232;-83
2021/08/10 09:01:30;;;;;;;9.82;3.65;;;;;;;;;;6274759;22;20023;-83
2021/08/10 09:03:57;;;;;;;7.32;3.88;;;;;;;;;;6270577;22;20122;-81
2021/08/10 09:06:24;;;;;;;10.13;3.83;;;;;;;;;;6244932;22;20184;-82
2021/08/10 09:08:55;;;;;;;8.60;3.50;;;;;;;;;;6272258;22;20078;-85
2021/08/10 09:11:26;;;;;;;8.40;3.42;;;;;;;;;;6269153;22;20496;-83
2021/08/10 09:13:57;;;;;;;7.13;4.13;;;;;;;;;;6271642;22;20226;-84
2021/08/10 09:16:27;;;;;;;6.75;4.20;;;;;;;;;;6246098;22;20034;-83
2021/08/10 09:18:54;;;;;;;10.45;3.70;;;;;;;;;;6247413;22;20321;-84
2021/08/10 09:21:24;;;;;;;12.23;4.90;;;;;;;;;;6241911;22;20377;-82
2021/08/10 09:23:56;;;;;;;9.70;4.28;;;;;;;;;;6244088;22;20119;-83
2021/08/10 09:26:23;;;;;;;8.77;4.70;;;;;;;;;;6268920;22;20023;-82
2021/08/10 09:28:55;;;;;;;14.43;6.40;;;;;;;;;;6244437;22;20020;-83
2021/08/10 09:31:28;;;;;;;10.77;5.00;;;;;;;;;;6245964;22;20361;-81
2021/08/10 09:33:55;;;;;;;14.02;5.15;;;;;;;;;;6240739;22;20035;-82
2021/08/10 09:36:22;;;;;;;9.50;5.40;;;;;;;;;;6268254;22;20039;-83
2021/08/10 09:38:50;;;;;;;10.95;6.53;;;;;;;;;;6245586;22;20031;-81
2021/08/10 09:41:17;;;;;;;9.00;5.63;;;;;;;;;;6244268;22;20322;-83
2021/08/10 09:43:44;;;;;;;10.95;6.97;;;;;;;;;;6272536;22;20024;-82
2021/08/10 09:46:16;;;;;;;13.95;7.45;;;;;;;;;;6252590;22;20043;-82
2021/08/10 09:48:49;;;;;;;10.35;6.68;;;;;;;;;;6288216;22;20031;-82
2021/08/10 09:51:16;;;;;;;13.85;7.90;;;;;;;;;;6287477;22;20024;-82
2021/08/10 09:53:52;;;;;;;13.02;6.35;;;;;;;;;;6257873;22;20035;-82
2021/08/10 09:56:19;;;;;;;11.77;6.47;;;;;;;;;;6256660;22;20200;-82
2021/08/10 09:58:58;;;;;;;8.98;5.50;;;;;;;;;;6249153;22;20023;-83
2021/08/10 10:01:36;;;;;;;12.50;6.50;;;;;;;;;;6241816;22;20370;-83
2021/08/10 10:04:10;;;;;;;9.20;5.00;;;;;;;;;;6270433;22;20294;-82
2021/08/10 10:06:36;;;;;;;8.27;4.35;;;;;;;;;;6245922;22;20024;-82
2021/08/10 10:09:04;;;;;;;7.32;4.18;;;;;;;;;;6246103;22;20024;-82
2021/08/10 10:11:33;;;;;;;8.20;3.30;;;;;;;;;;6265277;22;20046;-82
2021/08/10 10:14:00;;;;;;;9.70;3.47;;;;;;;;;;6242861;22;20058;-82
2021/08/10 10:16:27;;;;;;;7.95;3.85;;;;;;;;;;6251512;22;20086;-82
2021/08/10 10:18:55;;;;;;;7.53;3.58;;;;;;;;;;6277187;22;20067;-82
2021/08/10 10:21:22;;;;;;;5.22;2.88;;;;;;;;;;6280095;22;20086;-83
2021/08/10 10:23:53;;;;;;;4.82;2.53;;;;;;;;;;6250636;22;20038;-84
2021/08/10 10:26:21;;;;;;;4.88;2.80;;;;;;;;;;6245646;22;20163;-85
2021/08/10 10:28:54;;;;;;;9.27;3.10;;;;;;;;;;6245092;22;20183;-84
2021/08/10 10:31:20;;;;;;;6.38;2.53;;;;;;;;;;6279282;22;20053;-85
2021/08/10 10:33:48;;;;;;;5.93;2.50;;;;;;;;;;6256793;22;20169;-86
2021/08/10 10:40:27;;;;;;;5.72;2.90;;;;;;;;;;6282275;22;20070;-85
2021/08/10 10:42:56;;;;;;;5.95;3.05;;;;;;;;;;6247019;22;20020;-84
2021/08/10 10:45:35;;;;;;;5.85;2.85;;;;;;;;;;6279514;22;20193;-84
2021/08/10 10:48:21;;;;;;;7.35;2.97;;;;;;;;;;6251340;22;20020;-84
2021/08/10 10:51:02;;;;;;;8.98;3.10;;;;;;;;;;6279733;22;20105;-84
2021/08/10 10:53:29;;;;;;;8.82;2.83;;;;;;;;;;6277772;22;20088;-85
2021/08/10 10:55:55;;;;;;;6.55;2.80;;;;;;;;;;6246440;22;20374;-85
2021/08/10 10:58:23;;;;;;;6.28;2.80;;;;;;;;;;6247795;22;20098;-85
2021/08/10 11:01:16;;;;;;;5.95;3.35;;;;;;;;;;6246161;22;20024;-85
2021/08/10 11:04:06;;;;;;;5.30;2.33;;;;;;;;;;6241967;22;20046;-84
2021/08/10 11:06:47;;;;;;;5.35;2.97;;;;;;;;;;6235196;22;20035;-84
2021/08/10 11:09:32;;;;;;;5.85;2.42;;;;;;;;;;6274570;22;20164;-84
2021/08/10 11:12:00;;;;;;;7.47;3.00;;;;;;;;;;6261295;22;20117;-85
2021/08/10 11:14:39;;;;;;;6.55;2.78;;;;;;;;;;6291477;22;20019;-85
2021/08/10 11:17:10;;;;;;;6.75;2.95;;;;;;;;;;6276200;22;20448;-86
2021/08/10 11:19:37;;;;;;;5.90;2.55;;;;;;;;;;6270343;22;20030;-85
2021/08/10 11:22:16;;;;;;;4.53;3.13;;;;;;;;;;6276184;22;20444;-85
2021/08/10 11:24:46;;;;;;;7.15;3.05;;;;;;;;;;6263092;22;20204;-85
2021/08/10 11:27:32;;;;;;;11.18;3.30;;;;;;;;;;6277396;22;20039;-85
2021/08/10 11:29:59;;;;;;;8.27;2.75;;;;;;;;;;6271775;22;20034;-85
2021/08/10 11:32:37;;;;;;;8.38;3.13;;;;;;;;;;6246603;22;20046;-86
2021/08/10 11:35:22;;;;;;;8.85;3.15;;;;;;;;;;6246953;22;20047;-84
2021/08/10 11:38:08;;;;;;;6.57;3.22;;;;;;;;;;6272143;22;20035;-85
2021/08/10 11:40:53;;;;;;;6.55;3.17;;;;;;;;;;6272452;22;20028;-85
2021/08/10 11:43:21;;;;;;;11.98;4.75;;;;;;;;;;6246223;22;20078;-85
2021/08/10 11:45:48;;;;;;;10.45;4.40;;;;;;;;;;6274224;22;20043;-85
2021/08/10 11:48:23;;;;;;;9.00;4.25;;;;;;;;;;6274890;22;20023;-86
2021/08/10 11:50:49;;;;;;;10.35;4.60;;;;;;;;;;6249377;22;20605;-84
2021/08/10 11:53:29;;;;;;;8.95;4.47;;;;;;;;;;6277687;22;20035;-85
2021/08/10 11:55:56;;;;;;;7.38;4.10;;;;;;;;;;6274192;22;20392;-85
2021/08/10 11:58:40;;;;;;;10.70;4.28;;;;;;;;;;6248553;22;20038;-86
2021/08/10 12:01:10;;;;;;;8.55;4.78;;;;;;;;;;6245789;22;20045;-86
2021/08/10 12:03:38;;;;;;;9.05;4.05;;;;;;;;;;6272078;22;20020;-85
2021/08/10 12:06:04;;;;;;;7.63;4.50;;;;;;;;;;6274962;22;20074;-85
2021/08/10 12:08:32;;;;;;;9.07;4.70;;;;;;;;;;6245554;22;20046;-86
2021/08/10 12:10:59;;;;;;;7.03;3.70;;;;;;;;;;6273837;22;20051;-85
2021/08/10 12:13:27;;;;;;;9.25;4.63;;;;;;;;;;6271815;22;20024;-85
2021/08/10 12:15:57;;;;;;;8.45;3.67;;;;;;;;;;6249040;22;20016;-86
2021/08/10 12:18:25;;;;;;;6.53;3.13;;;;;;;;;;6247647;22;20023;-86
2021/08/10 12:21:04;;;;;;;6.05;2.45;;;;;;;;;;6276194;22;20024;-86
2021/08/10 12:23:38;;;;;;;3.80;2.80;;;;;;;;;;6282721;22;20097;-84
2021/08/10 12:26:16;;;;;;;7.00;2.45;;;;;;;;;;6286320;22;20045;-85
2021/08/10 12:28:54;;;;;;;6.20;2.60;;;;;;;;;;6279343;22;20191;-85
2021/08/10 12:31:21;;;;;;;4.38;2.78;;;;;;;;;;6275560;22;20079;-86
2021/08/10 12:33:49;;;;;;;5.00;2.75;;;;;;;;;;6250900;22;20028;-85
2021/08/10 12:36:16;;;;;;;5.57;2.28;;;;;;;;;;6241422;23;20488;-85
2021/08/10 12:38:44;;;;;;;4.47;2.20;;;;;;;;;;6215128;23;20032;-85
2021/08/10 12:41:28;;;;;;;4.68;2.50;;;;;;;;;;6218469;23;20020;-86
2021/08/10 12:43:55;;;;;;;6.00;2.58;;;;;;;;;;6239059;23;20024;-85
2021/08/10 12:46:28;;;;;;;6.00;2.88;;;;;;;;;;6214904;23;20024;-86
2021/08/10 12:49:01;;;;;;;7.07;3.03;;;;;;;;;;6241066;23;20024;-86
2021/08/10 12:51:48;;;;;;;7.90;3.75;;;;;;;;;;6216364;23;20106;-86
2021/08/10 12:54:15;;;;;;;;;;;;;;;;;;6215832;23;20027;-85
2021/08/10 12:56:42;;;;;;;18.60;8.05;;;;;;;;;;6213853;23;19927;-86
2021/08/10 12:59:08;;;;;;;13.90;7.43;;;;;;;;;;6213323;23;20035;-86
2021/08/10 13:01:42;;;;;;;13.63;8.82;;;;;;;;;;6215688;23;20338;-87
2021/08/10 13:04:10;;;;;;;19.65;9.45;;;;;;;;;;6219015;23;20236;-85
2021/08/10 13:06:37;;;;;;;18.45;9.73;;;;;;;;;;6215952;23;20047;-85
2021/08/10 13:09:07;;;;;;;14.50;9.25;;;;;;;;;;6217723;23;20136;-86
2021/08/10 13:11:35;;;;;;;17.92;10.70;;;;;;;;;;6239080;23;20080;-85
2021/08/10 13:14:09;;;;;;;14.23;9.25;;;;;;;;;;6208461;23;20279;-84
2021/08/10 13:16:38;;;;;;;17.38;9.70;;;;;;;;;;6210717;23;20032;-83
2021/08/10 13:19:16;;;;;;;17.52;10.13;;;;;;;;;;6212848;23;20075;-87
2021/08/10 13:21:58;;;;;;;20.83;10.90;;;;;;;;;;6220471;23;20050;-88
2021/08/10 13:24:26;;;;;;;15.52;10.30;;;;;;;;;;6223548;23;20063;-86
2021/08/10 13:26:56;;;;;;;14.98;8.90;;;;;;;;;;6217121;23;20185;-87
2021/08/10 13:29:34;;;;;;;18.90;8.77;;;;;;;;;;6238454;23;20056;-85
2021/08/10 13:32:01;;;;;;;14.85;8.52;;;;;;;;;;6216843;22;20034;-86
2021/08/10 13:34:46;;;;;;;12.48;7.85;;;;;;;;;;6249829;22;20397;-87
2021/08/10 13:37:12;;;;;;;15.13;7.95;;;;;;;;;;6273970;22;20036;-87
2021/08/10 13:39:43;;;;;;;13.05;7.40;;;;;;;;;;6245828;22;20394;-86
2021/08/10 13:42:11;;;;;;;12.38;6.85;;;;;;;;;;6272030;22;20058;-86
2021/08/10 13:44:37;;;;;;;9.50;6.70;;;;;;;;;;6248227;22;20417;-87
2021/08/10 13:47:13;;;;;;;12.45;7.57;;;;;;;;;;6281408;22;20050;-87
2021/08/10 13:49:43;;;;;;;8.93;6.28;;;;;;;;;;6288224;22;20079;-87
2021/08/10 13:52:10;;;;;;;12.57;6.07;;;;;;;;;;6251705;22;20059;-84
2021/08/10 13:54:36;;;;;;;10.15;6.40;;;;;;;;;;6268132;22;20028;-84
2021/08/10 13:57:03;;;;;;;9.07;6.10;;;;;;;;;;6240925;22;20032;-84
2021/08/10 13:59:30;;;;;;;8.60;5.30;;;;;;;;;;6266374;22;20151;-83
2021/08/10 14:01:58;;;;;;;8.90;4.50;;;;;;;;;;6240205;22;20074;-84
2021/08/10 14:04:27;;;;;;;6.20;4.68;;;;;;;;;;6244365;22;20276;-83
2021/08/10 14:06:57;;;;;;;6.75;4.95;;;;;;;;;;6268187;22;20075;-83
2021/08/10 14:09:27;;;;;;;7.97;5.18;;;;;;;;;;6242619;22;20034;-82
2021/08/10 14:11:54;;;;;;;13.13;4.85;;;;;;;;;;6245552;22;20027;-82
2021/08/10 14:14:23;;;;;;;9.55;5.85;;;;;;;;;;6249397;22;20020;-82
2021/08/10 14:16:53;;;;;;;9.60;5.35;;;;;;;;;;6260754;22;20028;-81
2021/08/10 14:19:19;;;;;;;10.07;5.82;;;;;;;;;;6277810;22;20023;-82
2021/08/10 14:21:46;;;;;;;8.27;5.35;;;;;;;;;;6245304;22;20073;-81
2021/08/10 14:24:13;;;;;;;7.32;5.30;;;;;;;;;;6245116;22;20082;-82
2021/08/10 14:26:40;;;;;;;9.93;5.13;;;;;;;;;;6262333;22;20067;-86
2021/08/10 14:29:07;;;;;;;11.85;6.75;;;;;;;;;;6257352;22;20019;-86
2021/08/10 14:31:33;;;;;;;12.98;6.50;;;;;;;;;;6275504;22;20097;-86
2021/08/10 14:34:00;;;;;;;8.40;5.70;;;;;;;;;;6245370;22;20312;-86
2021/08/10 14:36:27;;;;;;;13.52;6.65;;;;;;;;;;6273094;22;20445;-86
2021/08/10 14:38:54;;;;;;;7.47;5.93;;;;;;;;;;6269834;22;20123;-86
2021/08/10 14:41:21;;;;;;;13.73;6.18;;;;;;;;;;6245401;22;20034;-86
2021/08/10 14:43:48;;;;;;;9.85;6.78;;;;;;;;;;6269549;22;20402;-87
2021/08/10 14:46:14;;;;;;;10.95;7.32;;;;;;;;;;6245493;22;20024;-86
2021/08/10 14:48:41;;;;;;;14.20;8.25;;;;;;;;;;6246543;22;20035;-85